createdAt,value
2023-03-31T00:01:24.382Z,60.30
2023-03-31T00:06:27.872Z,60.67
2023-03-31T00:11:31.532Z,60.96
2023-03-31T00:16:36.450Z,60.88
2023-03-31T00:21:42.880Z,60.77
2023-03-31T00:26:46.645Z,61.13
2023-03-31T00:31:51.565Z,61.15
2023-03-31T00:36:56.831Z,61.62
2023-03-31T00:42:00.980Z,61.27
2023-03-31T00:47:11.826Z,61.80
2023-03-31T00:52:19.095Z,61.29
2023-03-31T00:57:24.961Z,62.00
2023-03-31T01:02:30.324Z,61.92
2023-03-31T01:07:41.674Z,62.30
2023-03-31T01:12:48.752Z,62.26
2023-03-31T01:17:56.081Z,62.71
2023-03-31T01:23:27.163Z,62.03
2023-03-31T01:28:39.064Z,62.30
2023-03-31T01:34:15.984Z,62.58
2023-03-31T01:40:02.920Z,62.54
2023-03-31T01:45:20.612Z,62.42
2023-03-31T01:50:29.587Z,62.46
2023-03-31T01:55:38.520Z,62.43
2023-03-31T02:00:46.906Z,62.50
2023-03-31T02:05:56.598Z,62.64
2023-03-31T02:11:02.141Z,62.90
2023-03-31T02:16:13.035Z,63.09
2023-03-31T02:21:17.691Z,62.57
2023-03-31T02:26:27.596Z,62.81
2023-03-31T02:31:44.358Z,62.83
2023-03-31T02:36:47.985Z,62.65
2023-03-31T02:41:52.841Z,62.63
2023-03-31T02:46:56.191Z,62.48
2023-03-31T02:52:32.578Z,62.70
2023-03-31T02:57:55.273Z,62.94
2023-03-31T03:03:15.556Z,63.13
2023-03-31T03:08:29.342Z,63.09
2023-03-31T03:13:42.269Z,62.99
2023-03-31T03:18:45.793Z,62.97
2023-03-31T03:23:49.235Z,63.03
2023-03-31T03:28:54.161Z,62.93
2023-03-31T03:33:57.738Z,63.04
2023-03-31T03:39:01.527Z,62.98
2023-03-31T03:44:06.815Z,62.87
2023-03-31T03:49:10.391Z,62.58
2023-03-31T03:54:14.193Z,62.86
2023-03-31T03:59:19.081Z,62.79
2023-03-31T04:04:22.439Z,62.21
2023-03-31T04:09:25.881Z,61.52
2023-03-31T04:14:30.816Z,52.04
2023-03-31T04:19:34.784Z,48.97
2023-03-31T04:24:38.914Z,42.51
2023-03-31T04:29:54.784Z,46.57
2023-03-31T04:35:03.673Z,52.06
2023-03-31T04:40:09.483Z,53.57
2023-03-31T04:45:14.636Z,54.29
2023-03-31T04:50:18.283Z,54.17
2023-03-31T04:55:21.747Z,54.95
2023-03-31T05:00:27.224Z,53.74
2023-03-31T05:05:30.794Z,52.09
2023-03-31T05:10:34.255Z,46.88
2023-03-31T05:15:40.805Z,34.13
2023-03-31T05:20:44.315Z,30.18
2023-03-31T05:25:49.036Z,31.65
2023-03-31T05:30:53.927Z,34.66
2023-03-31T05:35:57.801Z,31.44
2023-03-31T05:41:01.322Z,27.60
2023-03-31T05:46:07.108Z,23.72
2023-03-31T05:51:10.816Z,22.32
2023-03-31T05:56:14.281Z,20.67
2023-03-31T06:01:19.983Z,19.25
2023-03-31T06:06:24.294Z,18.01
2023-03-31T06:11:27.925Z,18.70
2023-03-31T06:16:32.833Z,17.48
2023-03-31T06:21:36.597Z,16.44
2023-03-31T06:26:40.078Z,15.45
2023-03-31T06:31:44.988Z,14.84
2023-03-31T06:36:48.506Z,14.09
2023-03-31T06:41:51.986Z,13.93
2023-03-31T06:46:56.868Z,12.94
2023-03-31T06:52:00.316Z,12.38
2023-03-31T06:57:03.962Z,11.88
2023-03-31T07:02:08.541Z,13.01
2023-03-31T07:07:12.016Z,11.14
2023-03-31T07:12:15.445Z,13.11
2023-03-31T07:17:20.446Z,10.45
2023-03-31T07:22:23.912Z,10.30
2023-03-31T07:27:27.431Z,9.99
2023-03-31T07:32:33.308Z,10.09
2023-03-31T07:37:37.242Z,10.11
2023-03-31T07:42:40.734Z,9.41
2023-03-31T07:47:46.641Z,9.38
2023-03-31T07:52:50.327Z,9.75
2023-03-31T07:57:53.982Z,9.67
2023-03-31T08:02:59.196Z,10.81
2023-03-31T08:08:02.774Z,11.24
2023-03-31T08:13:06.376Z,11.82
2023-03-31T08:18:11.696Z,12.62
2023-03-31T08:28:51.562Z,16.02
2023-03-31T08:33:58.739Z,18.56
2023-03-31T08:39:02.189Z,20.06
2023-03-31T08:44:11.602Z,21.27
2023-03-31T08:49:19.775Z,23.22
2023-03-31T08:54:32.675Z,24.73
2023-03-31T08:59:37.843Z,26.07
2023-03-31T09:04:56.391Z,26.44
2023-03-31T09:10:09.126Z,28.25
2023-03-31T09:15:16.463Z,28.80
2023-03-31T09:20:24.499Z,29.50
2023-03-31T09:25:30.140Z,30.28
2023-03-31T09:30:36.751Z,31.00
2023-03-31T09:35:42.285Z,31.33
2023-03-31T09:40:47.029Z,30.95
2023-03-31T09:46:05.754Z,31.75
2023-03-31T09:51:20.109Z,31.66
2023-03-31T09:56:50.609Z,32.38
2023-03-31T10:01:59.102Z,32.97
2023-03-31T10:07:08.261Z,33.47
2023-03-31T10:12:20.322Z,33.65
2023-03-31T10:17:25.879Z,33.59
2023-03-31T10:22:32.588Z,33.84
2023-03-31T10:27:36.148Z,34.07
2023-03-31T10:32:43.360Z,33.83
2023-03-31T10:37:50.573Z,34.25
2023-03-31T10:43:02.876Z,34.29
2023-03-31T10:48:08.709Z,34.52
2023-03-31T10:53:15.186Z,35.67
2023-03-31T10:58:35.436Z,36.25
2023-03-31T11:04:01.586Z,36.87
2023-03-31T11:09:19.464Z,36.52
2023-03-31T11:14:34.061Z,37.10
2023-03-31T11:19:49.264Z,36.87
2023-03-31T11:25:18.634Z,37.16
2023-03-31T11:30:26.177Z,37.33
2023-03-31T11:35:47.476Z,38.70
2023-03-31T11:41:03.687Z,38.79
2023-03-31T11:46:12.589Z,38.52
2023-03-31T11:51:21.139Z,39.26
2023-03-31T11:56:30.614Z,39.10
2023-03-31T12:01:42.555Z,39.17
2023-03-31T12:06:49.519Z,38.98
2023-03-31T12:12:00.920Z,38.77
2023-03-31T12:17:11.699Z,38.81
2023-03-31T12:22:21.146Z,39.18
2023-03-31T12:27:29.427Z,38.67
2023-03-31T12:32:36.588Z,39.04
2023-03-31T12:38:15.550Z,38.98
2023-03-31T12:43:48.522Z,39.69
2023-03-31T12:49:06.726Z,39.62
2023-03-31T12:54:23.603Z,40.16
2023-03-31T12:59:34.032Z,39.97
2023-03-31T13:04:38.452Z,39.88
2023-03-31T13:09:53.068Z,39.96
2023-03-31T13:15:00.648Z,40.55
2023-03-31T13:20:40.658Z,40.61
2023-03-31T13:26:10.502Z,40.87
2023-03-31T13:31:16.422Z,42.18
2023-03-31T13:36:49.156Z,41.63
2023-03-31T13:42:08.678Z,42.90
2023-03-31T13:47:54.542Z,43.28
2023-03-31T13:53:06.780Z,43.17
2023-03-31T13:58:39.137Z,43.66
2023-03-31T14:04:00.075Z,43.37
2023-03-31T14:09:07.981Z,43.04
2023-03-31T14:14:15.715Z,44.37
2023-03-31T14:19:43.509Z,43.22
2023-03-31T14:24:53.176Z,43.96
2023-03-31T14:30:04.336Z,43.79
2023-03-31T14:35:26.779Z,44.35
2023-03-31T14:40:32.189Z,44.95
2023-03-31T14:45:35.669Z,44.48
2023-03-31T14:50:44.845Z,44.98
2023-03-31T14:55:58.763Z,45.87
2023-03-31T15:01:07.037Z,45.21
2023-03-31T15:06:13.521Z,46.26
2023-03-31T15:11:21.051Z,45.78
2023-03-31T15:16:35.159Z,45.90
2023-03-31T15:21:40.589Z,46.17
2023-03-31T15:26:49.821Z,45.80
2023-03-31T15:31:53.558Z,46.59
2023-03-31T15:36:59.157Z,47.19
2023-03-31T15:42:05.125Z,47.32
2023-03-31T15:47:15.197Z,48.02
2023-03-31T15:52:27.991Z,49.18
2023-03-31T15:57:36.461Z,49.78
2023-03-31T16:02:44.199Z,49.79
2023-03-31T16:07:49.408Z,50.64
2023-03-31T16:12:56.188Z,50.59
2023-03-31T16:18:04.483Z,50.71
2023-03-31T16:23:17.232Z,51.20
2023-03-31T16:28:24.278Z,52.52
2023-03-31T16:33:27.809Z,52.08
2023-03-31T16:38:32.620Z,53.27
2023-03-31T16:43:36.367Z,53.17
2023-03-31T16:48:39.793Z,54.19
2023-03-31T16:53:45.316Z,54.12
2023-03-31T16:58:49.044Z,54.18
2023-03-31T17:03:52.733Z,54.79
2023-03-31T17:08:57.887Z,55.71
2023-03-31T17:14:02.496Z,55.73
2023-03-31T17:19:06.129Z,55.85
2023-03-31T17:24:11.573Z,56.34
2023-03-31T17:29:16.655Z,57.06
2023-03-31T17:34:20.213Z,57.32
2023-03-31T17:39:25.262Z,58.14
2023-03-31T17:44:28.717Z,57.86
2023-03-31T17:49:32.552Z,57.90
2023-03-31T17:54:37.512Z,58.15
2023-03-31T17:59:40.679Z,57.18
2023-03-31T18:04:44.840Z,57.36
2023-03-31T18:09:49.949Z,57.82
2023-03-31T18:14:53.744Z,57.83
2023-03-31T18:19:57.787Z,57.79
2023-03-31T18:25:02.718Z,57.53
2023-03-31T18:30:08.258Z,57.65
2023-03-31T18:35:11.841Z,58.22
2023-03-31T18:40:17.530Z,58.25
2023-03-31T18:45:21.042Z,58.42
2023-03-31T18:50:24.575Z,58.09
2023-03-31T18:55:30.282Z,58.04
2023-03-31T19:00:34.076Z,58.82
2023-03-31T19:05:38.914Z,59.18
2023-03-31T19:10:43.946Z,58.95
2023-03-31T19:15:47.859Z,59.57
2023-03-31T19:20:51.842Z,60.25
2023-03-31T19:25:57.829Z,60.34
2023-03-31T19:31:04.319Z,59.93
2023-03-31T19:36:08.052Z,59.19
2023-03-31T19:41:12.996Z,60.09
2023-03-31T19:46:16.215Z,60.79
2023-03-31T19:51:19.936Z,60.71
2023-03-31T19:56:27.142Z,60.50
2023-03-31T20:01:30.708Z,60.95
2023-03-31T20:06:37.183Z,61.54
2023-03-31T20:11:43.568Z,61.17
2023-03-31T20:16:48.069Z,60.31
2023-03-31T20:21:56.188Z,60.51
2023-03-31T20:27:01.635Z,60.93
2023-03-31T20:32:06.025Z,60.20
2023-03-31T20:37:09.474Z,60.41
2023-03-31T20:42:14.253Z,60.33
2023-03-31T20:47:17.823Z,60.13
2023-03-31T20:52:21.454Z,59.88
2023-03-31T20:57:26.550Z,60.49
2023-03-31T21:02:30.039Z,60.64
2023-03-31T21:07:33.505Z,61.10
2023-03-31T21:12:38.340Z,60.73
2023-03-31T21:17:41.858Z,60.72
2023-03-31T21:22:45.346Z,61.29
2023-03-31T21:27:50.262Z,61.02
2023-03-31T21:32:54.046Z,60.45
2023-03-31T21:37:57.449Z,60.94
2023-03-31T21:43:02.709Z,61.23
2023-03-31T21:48:08.235Z,60.87
2023-03-31T21:53:12.268Z,61.05
2023-03-31T21:58:17.977Z,61.39
2023-03-31T22:03:27.578Z,61.52
2023-03-31T22:08:32.322Z,61.06
2023-03-31T22:13:37.996Z,61.53
2023-03-31T22:18:41.420Z,61.49
2023-03-31T22:23:44.851Z,61.29
2023-03-31T22:28:50.325Z,61.59
2023-03-31T22:33:53.775Z,61.31
2023-03-31T22:38:57.225Z,60.98
2023-03-31T22:44:02.067Z,61.71
2023-03-31T22:49:06.406Z,61.45
2023-03-31T22:54:14.731Z,62.34
2023-03-31T22:59:19.678Z,61.60
2023-03-31T23:04:23.336Z,61.33
2023-03-31T23:09:27.295Z,61.80
2023-03-31T23:14:32.343Z,61.65
2023-03-31T23:19:37.385Z,61.68
2023-03-31T23:24:40.882Z,62.04
2023-03-31T23:29:46.211Z,62.07
2023-03-31T23:34:49.625Z,61.99
2023-03-31T23:39:53.080Z,62.21
2023-03-31T23:44:57.940Z,62.07
2023-03-31T23:50:01.325Z,61.33
2023-03-31T23:55:06.811Z,61.85
